createdAt,value
2022-08-03T00:02:15.606Z,100624.22
2022-08-03T00:04:42.904Z,100639.16
2022-08-03T00:07:10.026Z,100637.72
2022-08-03T00:09:37.181Z,100624.06
2022-08-03T00:12:04.472Z,100636.13
2022-08-03T00:14:31.483Z,100636.25
2022-08-03T00:16:58.685Z,100638.06
2022-08-03T00:19:25.894Z,100637.25
2022-08-03T00:21:52.928Z,100635.53
2022-08-03T00:24:20.207Z,100618.31
2022-08-03T00:26:47.454Z,100619.97
2022-08-03T00:29:14.451Z,100626.09
2022-08-03T00:31:52.855Z,100626.00
2022-08-03T00:34:36.553Z,100629.53
2022-08-03T00:37:13.431Z,100620.84
2022-08-03T00:39:41.108Z,100614.03
2022-08-03T00:42:08.253Z,100615.75
2022-08-03T00:44:43.224Z,100622.47
2022-08-03T00:47:10.862Z,100607.19
2022-08-03T00:49:41.078Z,100624.28
2022-08-03T00:52:10.127Z,100626.00
2022-08-03T00:54:38.457Z,100628.63
2022-08-03T00:57:05.750Z,100624.16
2022-08-03T00:59:32.847Z,100622.47
2022-08-03T01:01:59.925Z,100624.16
2022-08-03T01:04:26.987Z,100624.16
2022-08-03T01:07:10.879Z,100597.59
2022-08-03T01:09:56.647Z,100625.75
2022-08-03T01:12:39.214Z,100616.28
2022-08-03T01:15:24.420Z,100615.38
2022-08-03T01:18:05.308Z,100612.81
2022-08-03T01:20:39.019Z,100613.56
2022-08-03T01:23:40.947Z,100611.59
2022-08-03T01:26:41.400Z,100585.88
2022-08-03T01:29:35.917Z,100603.53
2022-08-03T01:33:00.126Z,100575.25
2022-08-03T01:35:01.350Z,100608.66
2022-08-03T01:37:38.851Z,100607.53
2022-08-03T01:40:08.215Z,100602.28
2022-08-03T01:42:38.073Z,100601.94
2022-08-03T01:45:07.660Z,100592.34
2022-08-03T01:47:35.809Z,100592.28
2022-08-03T01:50:05.659Z,100597.38
2022-08-03T01:52:34.035Z,100597.44
2022-08-03T01:55:03.348Z,100598.28
2022-08-03T01:57:31.412Z,100589.56
2022-08-03T02:00:01.670Z,100599.03
2022-08-03T02:02:39.839Z,100594.75
2022-08-03T02:05:10.965Z,100607.09
2022-08-03T02:07:40.959Z,100606.19
2022-08-03T02:10:09.779Z,100590.09
2022-08-03T02:12:39.095Z,100589.84
2022-08-03T02:15:07.764Z,100597.56
2022-08-03T02:17:39.486Z,100582.06
2022-08-03T02:20:11.255Z,100587.03
2022-08-03T02:22:42.776Z,100587.88
2022-08-03T02:25:11.586Z,100582.75
2022-08-03T02:27:50.450Z,100582.63
2022-08-03T02:30:19.456Z,100580.13
2022-08-03T02:32:57.357Z,100576.66
2022-08-03T02:35:27.507Z,100574.22
2022-08-03T02:38:01.416Z,100586.31
2022-08-03T02:40:29.604Z,100587.16
2022-08-03T02:43:00.621Z,100585.38
2022-08-03T02:45:29.736Z,100584.47
2022-08-03T02:48:03.075Z,100582.75
2022-08-03T02:50:32.083Z,100574.22
2022-08-03T02:53:01.790Z,100575.91
2022-08-03T02:55:29.839Z,100581.84
2022-08-03T02:58:01.691Z,100567.41
2022-08-03T03:00:31.856Z,100562.16
2022-08-03T03:03:00.851Z,100575.81
2022-08-03T03:05:54.774Z,100577.50
2022-08-03T03:08:20.662Z,100572.72
2022-08-03T03:10:55.638Z,100574.09
2022-08-03T03:13:23.582Z,100579.34
2022-08-03T03:15:52.419Z,100555.59
2022-08-03T03:18:22.748Z,100584.72
2022-08-03T03:20:53.233Z,100586.53
2022-08-03T03:23:22.547Z,100571.78
2022-08-03T03:25:51.603Z,100578.16
2022-08-03T03:28:19.380Z,100575.53
2022-08-03T03:30:53.206Z,100586.63
2022-08-03T03:33:22.042Z,100571.19
2022-08-03T03:35:49.766Z,100584.84
2022-08-03T03:38:16.895Z,100585.78
2022-08-03T03:40:44.333Z,100585.88
2022-08-03T03:43:12.853Z,100579.00
2022-08-03T03:45:43.256Z,100598.03
2022-08-03T03:48:10.518Z,100594.72
2022-08-03T03:50:41.132Z,100607.81
2022-08-03T03:53:12.628Z,100590.38
2022-08-03T03:56:02.064Z,100600.72
2022-08-03T03:58:27.880Z,100597.19
2022-08-03T04:00:54.995Z,100601.72
2022-08-03T04:03:22.222Z,100612.78
2022-08-03T04:06:08.217Z,100610.97
2022-08-03T04:08:54.168Z,100610.13
2022-08-03T04:11:30.047Z,100617.00
2022-08-03T04:14:19.979Z,100605.84
2022-08-03T04:16:55.262Z,100622.94
2022-08-03T04:19:43.896Z,100621.84
2022-08-03T04:22:14.344Z,100624.16
2022-08-03T04:24:47.100Z,100619.53
2022-08-03T04:27:17.169Z,100618.50
2022-08-03T04:29:48.549Z,100618.38
2022-08-03T04:32:17.819Z,100621.59
2022-08-03T04:34:45.518Z,100617.44
2022-08-03T04:37:17.815Z,100618.91
2022-08-03T04:39:45.175Z,100623.78
2022-08-03T04:42:14.234Z,100639.19
2022-08-03T04:44:44.602Z,100622.72
2022-08-03T04:47:11.604Z,100635.50
2022-08-03T04:49:39.522Z,100643.31
2022-08-03T04:52:08.827Z,100640.63
2022-08-03T04:54:48.692Z,100632.69
2022-08-03T04:57:22.024Z,100632.41
2022-08-03T04:59:59.586Z,100632.28
2022-08-03T05:02:29.268Z,100628.72
2022-08-03T05:04:56.491Z,100618.50
2022-08-03T05:07:24.994Z,100606.44
2022-08-03T05:10:01.745Z,100620.78
2022-08-03T05:12:32.933Z,100610.56
2022-08-03T05:15:01.050Z,100623.31
2022-08-03T05:17:29.117Z,100625.69
2022-08-03T05:19:56.872Z,100631.59
2022-08-03T05:22:24.052Z,100630.72
2022-08-03T05:24:51.443Z,100627.66
2022-08-03T05:27:22.106Z,100633.50
2022-08-03T05:29:50.558Z,100627.91
2022-08-03T05:32:18.240Z,100633.81
2022-08-03T05:34:45.492Z,100641.53
2022-08-03T05:37:12.560Z,100639.91
2022-08-03T05:39:39.670Z,100635.66
2022-08-03T05:42:06.660Z,100642.59
2022-08-03T05:44:33.719Z,100640.63
2022-08-03T05:47:00.798Z,100644.53
2022-08-03T05:49:28.100Z,100640.47
2022-08-03T05:51:59.806Z,100638.31
2022-08-03T05:54:56.211Z,100647.81
2022-08-03T05:57:22.887Z,100624.25
2022-08-03T05:59:55.696Z,100643.81
2022-08-03T06:02:28.554Z,100650.19
2022-08-03T06:04:55.610Z,100646.00
2022-08-03T06:07:22.777Z,100643.50
2022-08-03T06:10:35.941Z,100641.19
2022-08-03T06:12:37.412Z,100639.03
2022-08-03T06:15:05.726Z,100623.22
2022-08-03T06:20:06.405Z,100656.31
2022-08-03T06:22:33.848Z,100649.00
2022-08-03T06:25:04.858Z,100652.06
2022-08-03T06:27:37.083Z,100656.69
2022-08-03T06:30:05.092Z,100654.34
2022-08-03T06:32:32.245Z,100656.06
2022-08-03T06:34:59.739Z,100645.84
2022-08-03T06:37:27.399Z,100639.69
2022-08-03T06:39:54.708Z,100655.06
2022-08-03T06:42:22.629Z,100657.19
2022-08-03T06:44:50.066Z,100665.03
2022-08-03T06:47:17.432Z,100649.84
2022-08-03T06:49:44.514Z,100651.53
2022-08-03T06:52:38.171Z,100651.03
2022-08-03T06:55:07.128Z,100659.22
2022-08-03T06:57:34.130Z,100654.34
2022-08-03T07:00:09.608Z,100648.31
2022-08-03T07:02:40.185Z,100652.25
2022-08-03T07:05:08.722Z,100664.25
2022-08-03T07:07:36.247Z,100665.28
2022-08-03T07:10:04.528Z,100653.59
2022-08-03T07:12:32.637Z,100650.19
2022-08-03T07:15:02.642Z,100663.41
2022-08-03T07:17:31.938Z,100648.13
2022-08-03T07:20:00.315Z,100667.94
2022-08-03T07:22:27.869Z,100669.53
2022-08-03T07:24:55.249Z,100661.28
2022-08-03T07:27:22.733Z,100669.72
2022-08-03T07:29:49.908Z,100668.75
2022-08-03T07:32:17.082Z,100666.44
2022-08-03T07:34:44.389Z,100662.19
2022-08-03T07:37:11.730Z,100673.91
2022-08-03T07:39:38.806Z,100669.69
2022-08-03T07:42:06.040Z,100666.75
2022-08-03T07:44:33.607Z,100670.81
2022-08-03T07:47:03.340Z,100670.81
2022-08-03T07:49:31.003Z,100675.66
2022-08-03T07:52:17.809Z,100670.25
2022-08-03T07:54:48.295Z,100664.16
2022-08-03T07:57:15.791Z,100666.22
2022-08-03T07:59:56.838Z,100664.72
2022-08-03T08:02:39.583Z,100669.75
2022-08-03T08:05:07.132Z,100649.75
2022-08-03T08:07:34.303Z,100661.69
2022-08-03T08:10:01.256Z,100649.56
2022-08-03T08:12:28.468Z,100657.94
2022-08-03T08:14:55.577Z,100649.78
2022-08-03T08:17:22.687Z,100658.91
2022-08-03T08:19:51.608Z,100649.25
2022-08-03T08:22:29.931Z,100636.59
2022-08-03T08:25:01.210Z,100635.03
2022-08-03T08:28:31.871Z,100647.00
2022-08-03T08:30:19.654Z,100647.28
2022-08-03T08:32:47.839Z,100641.56
2022-08-03T08:35:15.660Z,100644.91
2022-08-03T08:37:43.587Z,100647.34
2022-08-03T08:40:21.966Z,100631.72
2022-08-03T08:42:58.564Z,100638.59
2022-08-03T08:45:27.291Z,100647.06
2022-08-03T08:48:01.648Z,100637.59
2022-08-03T08:50:33.771Z,100654.22
2022-08-03T08:53:04.019Z,100637.97
2022-08-03T08:55:58.342Z,100652.47
2022-08-03T08:58:22.561Z,100661.19
2022-08-03T09:00:51.130Z,100653.78
2022-08-03T09:03:28.985Z,100644.72
2022-08-03T09:05:59.815Z,100646.06
2022-08-03T09:08:27.038Z,100649.16
2022-08-03T09:10:54.110Z,100653.91
2022-08-03T09:13:21.450Z,100653.59
2022-08-03T09:15:57.151Z,100646.41
2022-08-03T09:18:32.739Z,100643.81
2022-08-03T09:21:34.411Z,100664.00
2022-08-03T09:24:05.799Z,100657.59
2022-08-03T09:26:37.400Z,100654.84
2022-08-03T09:29:14.623Z,100661.28
2022-08-03T09:31:47.301Z,100661.31
2022-08-03T09:34:17.695Z,100653.19
2022-08-03T09:36:46.133Z,100657.41
2022-08-03T09:39:18.462Z,100655.19
2022-08-03T09:42:03.399Z,100653.63
2022-08-03T09:44:44.456Z,100645.72
2022-08-03T09:47:13.722Z,100659.41
2022-08-03T09:49:42.666Z,100647.59
2022-08-03T09:52:38.765Z,100654.38
2022-08-03T09:56:30.422Z,100649.34
2022-08-03T09:58:07.553Z,100631.34
2022-08-03T10:00:52.614Z,100631.31
2022-08-03T10:03:20.177Z,100634.13
2022-08-03T10:05:48.086Z,100619.88
2022-08-03T10:08:16.589Z,100617.19
2022-08-03T10:10:44.973Z,100640.47
2022-08-03T10:13:14.434Z,100621.28
2022-08-03T10:16:21.519Z,100635.38
2022-08-03T10:18:29.002Z,100592.44
2022-08-03T10:21:04.921Z,100617.69
2022-08-03T10:23:35.754Z,100616.63
2022-08-03T10:26:04.983Z,100620.84
2022-08-03T10:28:44.732Z,100619.97
2022-08-03T10:31:14.385Z,100618.69
2022-08-03T10:33:52.812Z,100615.81
2022-08-03T10:36:25.067Z,100613.97
2022-08-03T10:38:53.865Z,100617.53
2022-08-03T10:41:23.573Z,100629.06
2022-08-03T10:44:03.242Z,100622.00
2022-08-03T10:46:30.309Z,100603.97
2022-08-03T10:48:58.865Z,100618.00
2022-08-03T10:51:30.718Z,100627.09
2022-08-03T10:53:58.774Z,100614.84
2022-08-03T10:56:54.695Z,100612.75
2022-08-03T10:59:46.562Z,100624.06
2022-08-03T11:02:14.478Z,100620.06
2022-08-03T11:04:43.029Z,100624.34
2022-08-03T11:07:16.595Z,100616.19
2022-08-03T11:09:49.948Z,100612.00
2022-08-03T11:12:29.887Z,100603.69
2022-08-03T11:15:05.413Z,100607.63
2022-08-03T11:17:45.809Z,100602.88
2022-08-03T11:20:14.277Z,100598.94
2022-08-03T11:22:51.716Z,100604.53
2022-08-03T11:25:52.999Z,100607.34
2022-08-03T11:28:42.335Z,100603.13
2022-08-03T11:31:49.281Z,100585.63
2022-08-03T11:34:17.785Z,100602.22
2022-08-03T11:37:24.062Z,100592.78
2022-08-03T11:39:54.950Z,100594.91
2022-08-03T11:42:25.049Z,100591.53
2022-08-03T11:44:54.043Z,100592.34
2022-08-03T11:47:24.257Z,100571.22
2022-08-03T11:49:54.283Z,100591.44
2022-08-03T11:52:27.250Z,100592.63
2022-08-03T11:54:56.528Z,100586.50
2022-08-03T11:59:09.331Z,100581.44
2022-08-03T12:00:28.078Z,100584.81
2022-08-03T12:03:03.720Z,100587.63
2022-08-03T12:05:56.956Z,100587.31
2022-08-03T12:08:26.834Z,100589.63
2022-08-03T12:10:55.719Z,100579.75
2022-08-03T12:14:44.067Z,100560.47
2022-08-03T12:16:22.292Z,100577.59
2022-08-03T12:19:05.191Z,100567.63
2022-08-03T12:21:32.673Z,100572.41
2022-08-03T12:24:01.719Z,100570.72
2022-08-03T12:26:58.261Z,100582.00
2022-08-03T12:29:26.824Z,100580.66
2022-08-03T12:31:54.115Z,100580.34
2022-08-03T12:34:21.179Z,100575.72
2022-08-03T12:36:56.772Z,100576.69
2022-08-03T12:39:25.899Z,100570.22
2022-08-03T12:41:54.587Z,100568.28
2022-08-03T12:44:31.091Z,100562.66
2022-08-03T12:46:59.303Z,100559.53
2022-08-03T12:49:27.054Z,100544.91
2022-08-03T12:51:54.189Z,100565.59
2022-08-03T12:54:24.417Z,100552.50
2022-08-03T12:57:15.875Z,100544.34
2022-08-03T12:59:53.058Z,100547.84
2022-08-03T13:02:24.176Z,100551.25
2022-08-03T13:04:53.381Z,100546.31
2022-08-03T13:07:21.660Z,100560.38
2022-08-03T13:09:54.041Z,100550.25
2022-08-03T13:12:26.540Z,100554.03
2022-08-03T13:14:58.497Z,100552.19
2022-08-03T13:17:27.282Z,100551.78
2022-08-03T13:19:54.858Z,100545.19
2022-08-03T13:22:24.338Z,100549.28
2022-08-03T13:24:53.665Z,100541.25
2022-08-03T13:28:01.233Z,100540.38
2022-08-03T13:30:09.089Z,100545.75
2022-08-03T13:32:36.644Z,100545.28
2022-08-03T13:35:04.309Z,100548.75
2022-08-03T13:37:32.532Z,100545.97
2022-08-03T13:40:02.666Z,100546.25
2022-08-03T13:42:32.976Z,100535.84
2022-08-03T13:45:00.874Z,100537.81
2022-08-03T13:47:28.523Z,100540.34
2022-08-03T13:50:01.730Z,100538.91
2022-08-03T13:52:31.761Z,100533.03
2022-08-03T13:54:59.082Z,100531.75
2022-08-03T13:58:04.794Z,100533.69
2022-08-03T14:00:26.391Z,100525.09
2022-08-03T14:03:02.792Z,100527.78
2022-08-03T14:05:34.910Z,100526.81
2022-08-03T14:08:04.014Z,100529.03
2022-08-03T14:10:33.665Z,100520.59
2022-08-03T14:13:00.804Z,100516.75
2022-08-03T14:15:28.943Z,100520.03
2022-08-03T14:17:58.771Z,100511.22
2022-08-03T14:20:38.717Z,100522.44
2022-08-03T14:23:15.003Z,100511.78
2022-08-03T14:25:50.179Z,100503.31
2022-08-03T14:28:18.865Z,100521.34
2022-08-03T14:30:46.364Z,100504.75
2022-08-03T14:33:13.375Z,100507.56
2022-08-03T14:35:40.887Z,100488.16
2022-08-03T14:38:08.039Z,100509.38
2022-08-03T14:40:35.194Z,100508.38
2022-08-03T14:43:02.822Z,100508.66
2022-08-03T14:45:29.968Z,100496.88
2022-08-03T14:50:30.058Z,100500.75
2022-08-03T14:50:50.144Z,100496.25
2022-08-03T14:53:18.754Z,100504.94
2022-08-03T14:55:51.547Z,100505.47
2022-08-03T14:58:23.800Z,100501.50
2022-08-03T15:00:54.413Z,100499.50
2022-08-03T15:03:25.578Z,100500.75
2022-08-03T15:05:56.203Z,100493.00
2022-08-03T15:08:24.851Z,100495.22
2022-08-03T15:10:52.537Z,100491.81
2022-08-03T15:13:20.427Z,100489.88
2022-08-03T15:15:48.552Z,100484.56
2022-08-03T15:18:16.076Z,100484.66
2022-08-03T15:20:45.560Z,100487.47
2022-08-03T15:23:14.075Z,100478.31
2022-08-03T15:26:28.008Z,100480.25
2022-08-03T15:28:28.695Z,100459.47
2022-08-03T15:30:56.593Z,100474.66
2022-08-03T15:33:23.701Z,100471.72
2022-08-03T15:35:50.679Z,100479.72
2022-08-03T15:38:17.909Z,100477.31
2022-08-03T15:40:45.358Z,100458.63
2022-08-03T15:43:12.555Z,100464.81
2022-08-03T15:45:42.002Z,100471.81
2022-08-03T15:48:09.217Z,100473.06
2022-08-03T15:50:36.695Z,100468.13
2022-08-03T15:53:05.064Z,100466.81
2022-08-03T15:55:32.377Z,100469.47
2022-08-03T15:59:09.397Z,100470.59
2022-08-03T16:00:46.868Z,100458.38
2022-08-03T16:03:14.232Z,100463.13
2022-08-03T16:05:41.546Z,100459.34
2022-08-03T16:08:13.559Z,100456.94
2022-08-03T16:10:41.142Z,100456.22
2022-08-03T16:13:08.816Z,100442.94
2022-08-03T16:15:38.351Z,100452.13
2022-08-03T16:18:06.582Z,100456.97
2022-08-03T16:20:35.061Z,100447.44
2022-08-03T16:23:10.599Z,100446.56
2022-08-03T16:25:49.155Z,100444.16
2022-08-03T16:28:17.487Z,100431.63
2022-08-03T16:30:46.883Z,100449.03
2022-08-03T16:33:17.401Z,100447.34
2022-08-03T16:35:46.798Z,100434.66
2022-08-03T16:38:18.561Z,100444.94
2022-08-03T16:40:52.566Z,100448.56
2022-08-03T16:43:22.247Z,100453.19
2022-08-03T16:45:49.797Z,100441.69
2022-08-03T16:48:18.369Z,100448.13
2022-08-03T16:50:46.188Z,100444.75
2022-08-03T16:53:16.737Z,100448.50
2022-08-03T16:55:53.788Z,100453.94
2022-08-03T16:58:34.233Z,100449.72
2022-08-03T17:01:20.927Z,100450.81
2022-08-03T17:04:04.708Z,100452.31
2022-08-03T17:06:37.530Z,100444.84
2022-08-03T17:09:10.576Z,100448.19
2022-08-03T17:11:44.052Z,100447.28
2022-08-03T17:14:15.699Z,100457.66
2022-08-03T17:16:53.042Z,100428.88
2022-08-03T17:19:23.513Z,100459.88
2022-08-03T17:22:04.169Z,100462.03
2022-08-03T17:24:34.757Z,100464.19
2022-08-03T17:27:03.438Z,100461.31
2022-08-03T17:29:35.272Z,100451.66
2022-08-03T17:32:09.769Z,100444.91
2022-08-03T17:34:38.909Z,100462.28
2022-08-03T17:37:07.045Z,100468.09
2022-08-03T17:39:59.445Z,100458.47
2022-08-03T17:42:31.632Z,100460.16
2022-08-03T17:45:04.003Z,100466.81
2022-08-03T17:47:41.161Z,100475.13
2022-08-03T17:50:25.100Z,100480.94
2022-08-03T17:53:07.606Z,100469.53
2022-08-03T17:55:55.978Z,100478.50
2022-08-03T17:58:55.176Z,100460.34
2022-08-03T18:01:59.529Z,100479.06
2022-08-03T18:04:34.986Z,100480.38
2022-08-03T18:07:10.972Z,100485.94
2022-08-03T18:10:06.331Z,100468.00
2022-08-03T18:12:41.421Z,100468.34
2022-08-03T18:15:20.862Z,100476.53
2022-08-03T18:17:55.411Z,100477.84
2022-08-03T18:20:31.210Z,100474.16
2022-08-03T18:23:06.358Z,100483.19
2022-08-03T18:25:49.150Z,100482.59
2022-08-03T18:28:19.210Z,100484.97
2022-08-03T18:30:54.101Z,100481.06
2022-08-03T18:34:17.948Z,100480.91
2022-08-03T18:36:22.127Z,100476.63
2022-08-03T18:39:02.372Z,100499.31
2022-08-03T18:41:35.011Z,100499.97
2022-08-03T18:44:07.207Z,100499.53
2022-08-03T18:47:07.264Z,100504.22
2022-08-03T18:50:10.030Z,100510.06
2022-08-03T18:52:53.151Z,100517.63
2022-08-03T18:55:32.992Z,100519.75
2022-08-03T18:58:17.899Z,100517.41
2022-08-03T19:01:03.376Z,100518.69
2022-08-03T19:03:41.289Z,100506.09
2022-08-03T19:06:19.924Z,100508.97
2022-08-03T19:08:56.287Z,100521.56
2022-08-03T19:12:26.179Z,100518.31
2022-08-03T19:14:46.083Z,100527.59
2022-08-03T19:17:14.305Z,100528.00
2022-08-03T19:19:51.597Z,100528.22
2022-08-03T19:22:23.254Z,100514.44
2022-08-03T19:24:55.418Z,100525.47
2022-08-03T19:27:26.846Z,100524.84
2022-08-03T19:29:59.750Z,100523.44
2022-08-03T19:32:29.712Z,100533.53
2022-08-03T19:34:59.662Z,100523.22
2022-08-03T19:37:33.279Z,100523.66
2022-08-03T19:40:10.221Z,100488.91
2022-08-03T19:42:44.735Z,100526.03
2022-08-03T19:45:22.065Z,100522.84
2022-08-03T19:48:13.991Z,100526.81
2022-08-03T19:50:44.388Z,100528.94
2022-08-03T19:53:13.344Z,100532.72
2022-08-03T19:55:48.991Z,100511.50
2022-08-03T19:58:17.727Z,100525.94
2022-08-03T20:00:55.860Z,100524.84
2022-08-03T20:03:28.030Z,100528.44
2022-08-03T20:06:12.662Z,100529.59
2022-08-03T20:08:44.439Z,100529.47
2022-08-03T20:11:11.875Z,100536.69
2022-08-03T20:13:39.364Z,100535.94
2022-08-03T20:16:06.932Z,100524.16
2022-08-03T20:18:39.444Z,100514.13
2022-08-03T20:21:14.960Z,100527.72
2022-08-03T20:24:03.360Z,100532.50
2022-08-03T20:26:32.468Z,100531.63
2022-08-03T20:29:09.235Z,100527.38
2022-08-03T20:31:51.112Z,100508.13
2022-08-03T20:34:18.176Z,100530.59
2022-08-03T20:36:45.337Z,100534.38
2022-08-03T20:39:12.412Z,100534.59
2022-08-03T20:41:41.052Z,100520.75
2022-08-03T20:44:08.179Z,100527.81
2022-08-03T20:49:23.787Z,100531.53
2022-08-03T20:51:53.116Z,100536.25
2022-08-03T20:54:30.611Z,100532.88
2022-08-03T20:57:04.087Z,100539.31
2022-08-03T20:59:50.800Z,100529.31
2022-08-03T21:02:28.813Z,100525.06
2022-08-03T21:04:56.747Z,100544.31
2022-08-03T21:07:24.393Z,100534.97
2022-08-03T21:09:53.681Z,100542.16
2022-08-03T21:12:51.032Z,100532.13
2022-08-03T21:13:07.421Z,100524.75
2022-08-03T21:16:04.865Z,100544.41
2022-08-03T21:18:14.837Z,100537.59
2022-08-03T21:20:46.735Z,100543.00
2022-08-03T21:23:39.899Z,100551.78
2022-08-03T21:26:03.171Z,100543.28
2022-08-03T21:28:30.408Z,100538.44
2022-08-03T21:30:59.119Z,100529.09
2022-08-03T21:33:34.200Z,100554.03
2022-08-03T21:36:04.487Z,100542.50
2022-08-03T21:38:32.618Z,100561.38
2022-08-03T21:40:59.748Z,100551.38
2022-08-03T21:43:26.937Z,100561.94
2022-08-03T21:45:59.013Z,100556.81
2022-08-03T21:48:27.597Z,100559.63
2022-08-03T21:50:55.104Z,100553.59
2022-08-03T21:53:25.978Z,100557.16
2022-08-03T21:56:15.780Z,100553.94
2022-08-03T21:58:54.069Z,100560.25
2022-08-03T22:01:25.418Z,100551.09
2022-08-03T22:03:54.709Z,100557.91
2022-08-03T22:06:23.020Z,100563.38
2022-08-03T22:08:54.570Z,100558.34
2022-08-03T22:11:21.755Z,100562.97
2022-08-03T22:13:50.847Z,100564.06
2022-08-03T22:16:18.980Z,100562.56
2022-08-03T22:18:46.408Z,100564.25
2022-08-03T22:21:16.652Z,100555.75
2022-08-03T22:23:58.991Z,100554.22
2022-08-03T22:26:32.245Z,100559.50
2022-08-03T22:29:19.422Z,100554.56
2022-08-03T22:31:58.151Z,100559.84
2022-08-03T22:34:27.281Z,100560.63
2022-08-03T22:37:00.342Z,100558.16
2022-08-03T22:39:29.369Z,100562.59
2022-08-03T22:41:59.852Z,100555.09
2022-08-03T22:44:28.276Z,100566.06
2022-08-03T22:46:56.259Z,100567.00
2022-08-03T22:49:24.179Z,100563.69
2022-08-03T22:51:53.741Z,100568.88
2022-08-03T22:54:21.158Z,100563.78
2022-08-03T22:56:49.374Z,100558.34
2022-08-03T22:59:41.100Z,100562.59
2022-08-03T23:02:22.680Z,100551.69
2022-08-03T23:04:52.899Z,100567.88
2022-08-03T23:07:21.550Z,100568.91
2022-08-03T23:09:49.908Z,100567.22
2022-08-03T23:12:20.475Z,100564.47
2022-08-03T23:15:01.677Z,100576.72
2022-08-03T23:17:31.379Z,100576.56
2022-08-03T23:20:08.779Z,100583.53
2022-08-03T23:22:39.616Z,100568.25
2022-08-03T23:25:10.937Z,100580.13
2022-08-03T23:27:48.835Z,100582.00
2022-08-03T23:30:37.690Z,100582.94
2022-08-03T23:33:06.951Z,100589.06
2022-08-03T23:36:27.550Z,100590.84
2022-08-03T23:38:43.708Z,100587.44
2022-08-03T23:41:11.144Z,100583.88
2022-08-03T23:43:50.777Z,100570.06
2022-08-03T23:46:21.855Z,100571.75
2022-08-03T23:48:48.949Z,100582.31
2022-08-03T23:51:57.224Z,100568.34
2022-08-03T23:55:06.160Z,100580.63
2022-08-03T23:57:38.138Z,100573.22
